createdAt,value
2023-02-28T00:00:53.258Z,5.20
2023-02-28T00:03:21.957Z,5.30
2023-02-28T00:05:50.368Z,6.20
2023-02-28T00:08:18.780Z,4.70
2023-02-28T00:10:47.441Z,5.40
2023-02-28T00:13:19.923Z,5.10
2023-02-28T00:15:48.333Z,5.00
2023-02-28T00:18:16.712Z,5.50
2023-02-28T00:20:47.454Z,5.10
2023-02-28T00:23:16.446Z,5.20
2023-02-28T00:25:44.826Z,5.10
2023-02-28T00:28:14.142Z,5.20
2023-02-28T00:30:42.815Z,5.10
2023-02-28T00:33:11.506Z,5.10
2023-02-28T00:35:40.041Z,5.20
2023-02-28T00:38:10.618Z,5.80
2023-02-28T00:40:38.997Z,6.00
2023-02-28T00:43:07.696Z,6.50
2023-02-28T00:45:36.410Z,5.90
2023-02-28T00:50:36.722Z,5.10
2023-02-28T00:53:07.760Z,5.30
2023-02-28T00:55:36.553Z,5.80
2023-02-28T00:58:06.497Z,5.80
2023-02-28T01:00:34.977Z,6.00
2023-02-28T01:03:03.445Z,7.00
2023-02-28T01:05:32.028Z,7.30
2023-02-28T01:08:00.522Z,5.30
2023-02-28T01:10:32.685Z,5.10
2023-02-28T01:13:01.368Z,4.90
2023-02-28T01:15:29.975Z,4.10
2023-02-28T01:17:58.435Z,4.40
2023-02-28T01:20:26.944Z,4.50
2023-02-28T01:22:55.427Z,3.90
2023-02-28T01:25:25.256Z,4.50
2023-02-28T01:27:54.850Z,4.00
2023-02-28T01:30:24.256Z,4.40
2023-02-28T01:32:54.889Z,4.50
2023-02-28T01:35:23.276Z,3.70
2023-02-28T01:37:51.732Z,3.90
2023-02-28T01:40:20.927Z,4.30
2023-02-28T01:42:50.641Z,3.80
2023-02-28T01:45:27.623Z,4.40
2023-02-28T01:47:59.481Z,4.70
2023-02-28T01:52:58.253Z,4.50
2023-02-28T01:55:29.953Z,4.60
2023-02-28T01:58:03.448Z,4.70
2023-02-28T02:00:32.567Z,5.20
2023-02-28T02:03:12.527Z,5.40
2023-02-28T02:05:41.640Z,4.70
2023-02-28T02:08:12.979Z,5.10
2023-02-28T02:10:44.146Z,4.70
2023-02-28T02:13:18.762Z,4.60
2023-02-28T02:16:08.363Z,4.20
2023-02-28T02:18:48.155Z,4.40
2023-02-28T02:21:25.242Z,4.60
2023-02-28T02:24:03.967Z,4.50
2023-02-28T02:26:49.747Z,4.50
2023-02-28T02:29:56.735Z,4.60
2023-02-28T02:32:48.154Z,4.60
2023-02-28T02:35:30.709Z,5.00
2023-02-28T02:38:11.337Z,4.30
2023-02-28T02:40:58.500Z,5.10
2023-02-28T02:43:31.683Z,4.60
2023-02-28T02:46:13.675Z,4.30
2023-02-28T02:48:42.036Z,4.70
2023-02-28T02:51:18.749Z,4.30
2023-02-28T02:53:52.501Z,4.30
2023-02-28T02:56:22.558Z,4.40
2023-02-28T02:58:51.855Z,4.60
2023-02-28T03:01:29.644Z,5.10
2023-02-28T03:04:00.851Z,4.90
2023-02-28T03:06:29.387Z,4.20
2023-02-28T03:08:58.690Z,5.40
2023-02-28T03:11:27.594Z,4.60
2023-02-28T03:14:23.915Z,4.50
2023-02-28T03:17:30.691Z,4.50
2023-02-28T03:20:23.206Z,4.10
2023-02-28T03:23:01.872Z,4.50
2023-02-28T03:25:35.367Z,4.30
2023-02-28T03:28:11.731Z,4.30
2023-02-28T03:30:55.164Z,4.60
2023-02-28T03:33:36.246Z,4.70
2023-02-28T03:36:07.945Z,4.40
2023-02-28T03:38:44.680Z,4.30
2023-02-28T03:41:18.847Z,5.00
2023-02-28T03:43:59.673Z,4.50
2023-02-28T03:46:30.103Z,4.70
2023-02-28T03:49:05.171Z,5.10
2023-02-28T03:51:33.862Z,5.40
2023-02-28T03:54:06.509Z,6.10
2023-02-28T03:56:36.314Z,5.40
2023-02-28T03:59:16.103Z,5.10
2023-02-28T04:01:46.226Z,5.20
2023-02-28T04:04:14.935Z,5.60
2023-02-28T04:06:45.320Z,5.60
2023-02-28T04:09:15.887Z,5.20
2023-02-28T04:11:53.218Z,5.30
2023-02-28T04:14:21.636Z,4.80
2023-02-28T04:16:50.097Z,5.10
2023-02-28T04:19:18.590Z,4.40
2023-02-28T04:21:51.750Z,4.80
2023-02-28T04:24:26.656Z,6.00
2023-02-28T04:26:56.754Z,5.00
2023-02-28T04:29:29.930Z,5.60
2023-02-28T04:32:02.006Z,5.20
2023-02-28T04:34:31.929Z,5.90
2023-02-28T04:37:17.246Z,5.20
2023-02-28T04:39:46.286Z,6.20
2023-02-28T04:42:15.815Z,5.20
2023-02-28T04:44:44.096Z,6.60
2023-02-28T04:47:13.063Z,7.00
2023-02-28T04:49:42.820Z,6.50
2023-02-28T04:52:12.617Z,6.20
2023-02-28T04:54:42.953Z,6.40
2023-02-28T04:57:14.541Z,6.10
2023-02-28T04:59:44.969Z,6.80
2023-02-28T05:02:15.092Z,5.80
2023-02-28T05:04:58.045Z,6.10
2023-02-28T05:07:51.732Z,7.30
2023-02-28T05:10:30.570Z,6.70
2023-02-28T05:13:03.845Z,6.90
2023-02-28T05:15:35.789Z,6.80
2023-02-28T05:18:13.805Z,6.30
2023-02-28T05:20:42.707Z,6.40
2023-02-28T05:23:14.263Z,6.60
2023-02-28T05:25:43.164Z,6.60
2023-02-28T05:28:12.349Z,6.40
2023-02-28T05:30:40.946Z,7.00
2023-02-28T05:33:12.149Z,6.50
2023-02-28T05:35:41.744Z,6.80
2023-02-28T05:38:10.608Z,7.00
2023-02-28T05:40:41.459Z,6.70
2023-02-28T05:43:11.759Z,6.50
2023-02-28T05:45:40.272Z,5.20
2023-02-28T05:48:09.341Z,5.80
2023-02-28T05:50:37.932Z,5.30
2023-02-28T05:53:06.420Z,4.90
2023-02-28T05:55:37.248Z,5.40
2023-02-28T05:58:05.739Z,4.90
2023-02-28T06:00:34.621Z,5.60
2023-02-28T06:03:03.468Z,5.70
2023-02-28T06:05:32.308Z,5.20
2023-02-28T06:08:00.508Z,5.70
2023-02-28T06:10:30.022Z,5.50
2023-02-28T06:13:03.719Z,4.90
2023-02-28T06:15:32.713Z,5.20
2023-02-28T06:18:03.962Z,5.20
2023-02-28T06:20:33.785Z,5.60
2023-02-28T06:23:02.455Z,5.50
2023-02-28T06:25:31.750Z,5.60
2023-02-28T06:28:02.096Z,5.70
2023-02-28T06:30:32.542Z,5.80
2023-02-28T06:33:00.885Z,5.50
2023-02-28T06:35:29.354Z,6.30
2023-02-28T06:37:58.984Z,5.90
2023-02-28T06:40:27.818Z,6.30
2023-02-28T06:42:56.985Z,6.40
2023-02-28T06:45:27.404Z,6.90
2023-02-28T06:47:57.897Z,6.40
2023-02-28T06:50:26.623Z,6.60
2023-02-28T06:52:56.782Z,7.40
2023-02-28T06:55:25.641Z,7.50
2023-02-28T06:57:56.063Z,7.10
2023-02-28T07:00:26.190Z,6.10
2023-02-28T07:02:56.410Z,6.10
2023-02-28T07:05:25.035Z,6.50
2023-02-28T07:07:55.733Z,6.70
2023-02-28T07:10:24.724Z,5.90
2023-02-28T07:12:58.739Z,7.40
2023-02-28T07:15:27.221Z,5.90
2023-02-28T07:17:55.704Z,5.90
2023-02-28T07:20:24.853Z,5.10
2023-02-28T07:22:57.547Z,7.00
2023-02-28T07:25:28.508Z,6.80
2023-02-28T07:27:57.426Z,6.20
2023-02-28T07:30:25.845Z,6.40
2023-02-28T07:32:57.544Z,7.20
2023-02-28T07:37:55.141Z,7.50
2023-02-28T07:40:23.638Z,6.80
2023-02-28T07:42:52.186Z,6.00
2023-02-28T07:45:20.697Z,7.70
2023-02-28T07:47:49.284Z,8.50
2023-02-28T08:03:06.760Z,8.30
2023-02-28T08:05:39.837Z,6.80
2023-02-28T08:08:08.900Z,6.80
2023-02-28T08:10:56.436Z,7.40
2023-02-28T08:13:25.844Z,7.30
2023-02-28T08:15:56.391Z,7.40
2023-02-28T08:18:26.315Z,8.00
2023-02-28T08:20:54.938Z,8.50
2023-02-28T08:23:24.921Z,7.20
2023-02-28T08:28:27.840Z,6.80
2023-02-28T08:30:56.543Z,7.30
2023-02-28T08:33:25.579Z,7.90
2023-02-28T08:35:55.723Z,8.20
2023-02-28T08:38:24.560Z,7.70
2023-02-28T08:41:00.238Z,6.90
2023-02-28T08:43:29.692Z,6.50
2023-02-28T08:45:58.491Z,7.00
2023-02-28T08:48:28.134Z,7.50
2023-02-28T08:51:07.223Z,7.60
2023-02-28T08:53:38.444Z,8.10
2023-02-28T08:56:15.015Z,7.70
2023-02-28T08:58:44.623Z,7.30
2023-02-28T09:01:14.902Z,6.50
2023-02-28T09:03:45.266Z,7.40
2023-02-28T09:06:14.810Z,7.20
2023-02-28T09:08:44.108Z,8.20
2023-02-28T09:11:13.615Z,8.20
2023-02-28T09:13:44.101Z,8.10
2023-02-28T09:16:14.536Z,8.20
2023-02-28T09:18:43.774Z,8.00
2023-02-28T09:21:16.611Z,7.50
2023-02-28T09:23:45.453Z,7.60
2023-02-28T09:26:25.980Z,7.40
2023-02-28T09:28:54.854Z,7.60
2023-02-28T09:31:25.642Z,7.90
2023-02-28T09:33:56.157Z,7.00
2023-02-28T09:36:34.507Z,7.80
2023-02-28T09:39:10.715Z,7.00
2023-02-28T09:41:52.081Z,7.60
2023-02-28T09:44:45.115Z,8.10
2023-02-28T09:47:29.518Z,7.00
2023-02-28T09:49:59.489Z,7.40
2023-02-28T09:52:31.766Z,7.30
2023-02-28T09:55:25.506Z,7.00
2023-02-28T09:57:55.235Z,8.10
2023-02-28T10:00:37.650Z,7.60
2023-02-28T10:03:28.000Z,7.30
2023-02-28T10:06:17.485Z,7.30
2023-02-28T10:08:53.302Z,6.90
2023-02-28T10:11:24.748Z,7.10
2023-02-28T10:14:03.590Z,7.60
2023-02-28T10:16:37.288Z,6.70
2023-02-28T10:19:16.540Z,6.60
2023-02-28T10:22:01.313Z,7.40
2023-02-28T10:24:34.467Z,7.60
2023-02-28T10:27:13.719Z,8.30
2023-02-28T10:29:53.420Z,7.60
2023-02-28T10:32:32.660Z,7.10
2023-02-28T10:35:10.356Z,7.50
2023-02-28T10:37:39.974Z,8.40
2023-02-28T10:40:36.891Z,8.80
2023-02-28T10:43:15.481Z,7.40
2023-02-28T10:46:04.478Z,8.40
2023-02-28T10:48:40.716Z,8.00
2023-02-28T10:51:14.179Z,7.50
2023-02-28T10:53:59.730Z,8.60
2023-02-28T10:56:29.904Z,7.80
2023-02-28T10:59:16.664Z,8.10
2023-02-28T11:01:47.445Z,7.50
2023-02-28T11:04:23.104Z,7.40
2023-02-28T11:07:05.865Z,7.60
2023-02-28T11:09:40.928Z,8.20
2023-02-28T11:12:23.773Z,8.70
2023-02-28T11:15:00.631Z,7.70
2023-02-28T11:17:31.139Z,7.50
2023-02-28T11:20:09.266Z,7.70
2023-02-28T11:22:40.119Z,7.00
2023-02-28T11:25:28.439Z,6.90
2023-02-28T11:28:07.574Z,7.00
2023-02-28T11:30:40.751Z,6.10
2023-02-28T11:33:28.698Z,7.00
2023-02-28T11:36:05.828Z,7.50
2023-02-28T11:38:35.763Z,7.70
2023-02-28T11:41:10.958Z,6.80
2023-02-28T11:43:57.917Z,6.30
2023-02-28T11:46:37.256Z,6.60
2023-02-28T11:49:15.192Z,7.00
2023-02-28T11:52:09.876Z,5.90
2023-02-28T11:55:03.317Z,5.70
2023-02-28T11:58:02.483Z,5.80
2023-02-28T12:00:41.821Z,6.40
2023-02-28T12:03:42.968Z,6.90
2023-02-28T12:06:31.845Z,6.90
2023-02-28T12:09:36.458Z,6.10
2023-02-28T12:12:26.255Z,6.20
2023-02-28T12:27:39.606Z,7.30
2023-02-28T12:30:20.188Z,6.90
2023-02-28T12:33:13.684Z,7.50
2023-02-28T12:35:49.699Z,6.60
2023-02-28T12:38:23.398Z,6.80
2023-02-28T12:41:04.254Z,6.70
2023-02-28T12:43:35.279Z,6.70
2023-02-28T12:46:23.013Z,7.40
2023-02-28T12:48:59.038Z,6.80
2023-02-28T12:51:27.962Z,7.30
2023-02-28T12:54:14.253Z,8.40
2023-02-28T12:56:54.373Z,8.50
2023-02-28T12:59:42.519Z,7.50
2023-02-28T13:02:37.416Z,7.90
2023-02-28T13:05:39.944Z,7.50
2023-02-28T13:08:38.352Z,7.60
2023-02-28T13:11:13.167Z,6.60
2023-02-28T13:16:21.468Z,7.70
2023-02-28T13:18:49.820Z,8.00
2023-02-28T13:21:26.097Z,7.30
2023-02-28T13:24:01.517Z,7.70
2023-02-28T13:26:38.913Z,7.50
2023-02-28T13:29:19.312Z,7.20
2023-02-28T13:32:09.862Z,7.80
2023-02-28T13:34:50.746Z,7.70
2023-02-28T13:37:25.924Z,8.00
2023-02-28T13:39:58.043Z,7.60
2023-02-28T13:42:32.299Z,7.10
2023-02-28T13:45:03.748Z,7.60
2023-02-28T13:47:50.640Z,7.90
2023-02-28T13:50:25.078Z,7.10
2023-02-28T13:53:01.975Z,7.50
2023-02-28T13:55:52.165Z,7.90
2023-02-28T13:58:36.770Z,6.60
2023-02-28T14:01:40.544Z,7.10
2023-02-28T14:04:34.016Z,7.90
2023-02-28T14:07:02.935Z,8.00
2023-02-28T14:09:40.058Z,7.20
2023-02-28T14:12:47.672Z,8.30
2023-02-28T14:16:08.654Z,7.20
2023-02-28T14:18:38.583Z,7.00
2023-02-28T14:21:20.848Z,7.30
2023-02-28T14:24:11.212Z,7.90
2023-02-28T14:26:55.569Z,6.40
2023-02-28T14:29:29.946Z,6.40
2023-02-28T14:32:20.154Z,6.90
2023-02-28T14:34:53.451Z,6.70
2023-02-28T14:37:26.727Z,6.30
2023-02-28T14:39:54.941Z,5.90
2023-02-28T14:42:30.179Z,6.40
2023-02-28T14:44:58.532Z,7.50
2023-02-28T14:47:32.873Z,7.40
2023-02-28T14:50:04.948Z,7.10
2023-02-28T14:52:33.979Z,7.40
2023-02-28T14:55:09.188Z,7.20
2023-02-28T14:57:42.249Z,7.40
2023-02-28T15:00:30.367Z,7.60
2023-02-28T15:02:59.960Z,7.10
2023-02-28T15:05:30.978Z,7.10
2023-02-28T15:08:17.981Z,7.20
2023-02-28T15:10:57.152Z,6.20
2023-02-28T15:13:48.269Z,6.60
2023-02-28T15:16:18.390Z,6.90
2023-02-28T15:19:08.283Z,6.60
2023-02-28T15:21:39.189Z,7.70
2023-02-28T15:24:15.404Z,7.50
2023-02-28T15:26:47.118Z,7.30
2023-02-28T15:29:21.882Z,8.20
2023-02-28T15:32:07.414Z,8.00
2023-02-28T15:34:43.831Z,8.70
2023-02-28T15:37:28.357Z,8.20
2023-02-28T15:39:57.734Z,7.20
2023-02-28T15:42:30.968Z,7.00
2023-02-28T15:45:01.151Z,7.60
2023-02-28T15:47:31.053Z,6.80
2023-02-28T15:50:02.018Z,6.50
2023-02-28T15:52:45.900Z,7.60
2023-02-28T15:55:22.770Z,6.60
2023-02-28T15:57:53.542Z,5.90
2023-02-28T16:00:23.901Z,7.30
2023-02-28T16:02:52.593Z,7.70
2023-02-28T16:05:33.105Z,7.10
2023-02-28T16:08:21.729Z,7.00
2023-02-28T16:10:51.017Z,8.00
2023-02-28T16:13:19.534Z,6.70
2023-02-28T16:15:52.618Z,7.10
2023-02-28T16:18:21.968Z,7.10
2023-02-28T16:20:50.271Z,7.60
2023-02-28T16:23:18.661Z,7.80
2023-02-28T16:25:49.991Z,8.00
2023-02-28T16:28:21.267Z,7.10
2023-02-28T16:30:50.601Z,6.70
2023-02-28T16:33:22.605Z,6.90
2023-02-28T16:35:52.175Z,7.30
2023-02-28T16:38:20.852Z,8.20
2023-02-28T16:40:53.850Z,7.60
2023-02-28T16:43:24.989Z,7.90
2023-02-28T16:46:01.267Z,6.60
2023-02-28T16:48:31.994Z,7.80
2023-02-28T16:51:05.524Z,7.00
2023-02-28T16:53:34.577Z,7.90
2023-02-28T16:56:03.365Z,7.90
2023-02-28T16:58:32.125Z,7.50
2023-02-28T17:01:04.986Z,7.80
2023-02-28T17:03:34.359Z,7.50
2023-02-28T17:06:02.880Z,8.70
2023-02-28T17:08:33.758Z,7.40
2023-02-28T17:11:05.970Z,7.80
2023-02-28T17:13:39.138Z,7.10
2023-02-28T17:16:21.942Z,7.70
2023-02-28T17:21:19.704Z,7.30
2023-02-28T17:23:48.340Z,8.40
2023-02-28T17:26:25.853Z,8.90
2023-02-28T17:28:56.928Z,7.10
2023-02-28T17:31:26.382Z,7.10
2023-02-28T17:33:57.984Z,8.60
2023-02-28T17:36:27.205Z,9.60
2023-02-28T17:41:32.141Z,8.10
2023-02-28T17:44:01.219Z,8.00
2023-02-28T17:46:30.042Z,9.10
2023-02-28T17:49:00.813Z,9.50
2023-02-28T17:51:29.236Z,9.30
2023-02-28T17:53:57.725Z,9.30
2023-02-28T17:56:26.767Z,9.70
2023-02-28T17:58:58.154Z,10.00
2023-02-28T18:01:27.256Z,9.20
2023-02-28T18:03:55.777Z,9.40
2023-02-28T18:06:26.071Z,10.40
2023-02-28T18:08:55.036Z,11.40
2023-02-28T18:11:42.599Z,11.60
2023-02-28T18:14:11.193Z,11.00
2023-02-28T18:16:39.615Z,11.60
2023-02-28T18:19:17.765Z,10.90
2023-02-28T18:21:48.203Z,12.10
2023-02-28T18:24:18.840Z,12.30
2023-02-28T18:26:47.258Z,12.70
2023-02-28T18:29:22.966Z,12.20
2023-02-28T18:31:52.009Z,11.90
2023-02-28T18:34:21.457Z,11.10
2023-02-28T18:36:50.872Z,12.20
2023-02-28T18:39:19.776Z,11.30
2023-02-28T18:41:48.612Z,9.50
2023-02-28T18:44:20.977Z,10.40
2023-02-28T18:46:53.260Z,11.20
2023-02-28T18:49:25.084Z,11.40
2023-02-28T18:52:11.104Z,10.50
2023-02-28T18:54:53.213Z,10.80
2023-02-28T18:57:30.328Z,10.80
2023-02-28T19:00:13.788Z,11.50
2023-02-28T19:02:48.194Z,10.80
2023-02-28T19:05:37.567Z,11.00
2023-02-28T19:08:17.844Z,11.10
2023-02-28T19:11:07.193Z,7.30
2023-02-28T19:14:08.176Z,10.70
2023-02-28T19:16:53.353Z,10.00
2023-02-28T19:19:45.197Z,10.10
2023-02-28T19:22:47.203Z,9.80
2023-02-28T19:25:49.169Z,9.80
2023-02-28T19:28:33.834Z,10.20
2023-02-28T19:31:37.684Z,10.10
2023-02-28T19:34:08.243Z,10.10
2023-02-28T19:36:36.844Z,10.20
2023-02-28T19:39:05.605Z,9.80
2023-02-28T19:41:33.902Z,10.20
2023-02-28T19:44:02.132Z,9.60
2023-02-28T19:46:31.268Z,10.70
2023-02-28T19:48:59.504Z,9.20
2023-02-28T19:51:28.892Z,10.60
2023-02-28T19:54:02.803Z,11.70
2023-02-28T19:56:31.175Z,10.40
2023-02-28T19:58:59.864Z,10.30
2023-02-28T20:01:30.582Z,8.30
2023-02-28T20:03:59.106Z,9.80
2023-02-28T20:06:27.455Z,10.30
2023-02-28T20:08:55.601Z,10.20
2023-02-28T20:11:24.036Z,9.50
2023-02-28T20:13:53.542Z,9.80
2023-02-28T20:16:24.517Z,10.20
2023-02-28T20:18:52.784Z,8.50
2023-02-28T20:21:21.464Z,9.50
2023-02-28T20:23:49.941Z,9.90
2023-02-28T20:26:21.436Z,9.10
2023-02-28T20:28:49.701Z,9.70
2023-02-28T20:31:23.264Z,8.70
2023-02-28T20:33:51.804Z,10.40
2023-02-28T20:36:21.481Z,9.20
2023-02-28T20:38:51.814Z,9.80
2023-02-28T20:41:21.539Z,10.60
2023-02-28T20:43:55.071Z,9.60
2023-02-28T20:46:26.258Z,10.00
2023-02-28T20:48:54.870Z,9.30
2023-02-28T20:51:23.885Z,9.80
2023-02-28T20:53:53.265Z,10.40
2023-02-28T20:56:23.857Z,9.40
2023-02-28T20:58:53.315Z,9.90
2023-02-28T21:01:26.377Z,10.50
2023-02-28T21:03:56.987Z,8.90
2023-02-28T21:06:26.927Z,8.70
2023-02-28T21:08:58.621Z,9.50
2023-02-28T21:11:28.967Z,10.00
2023-02-28T21:14:02.149Z,10.30
2023-02-28T21:16:31.090Z,10.20
2023-02-28T21:19:05.714Z,11.30
2023-02-28T21:21:39.205Z,10.50
2023-02-28T21:24:07.872Z,10.60
2023-02-28T21:26:36.565Z,10.00
2023-02-28T21:29:06.320Z,11.00
2023-02-28T21:31:35.625Z,10.00
2023-02-28T21:34:07.304Z,9.90
2023-02-28T21:36:41.122Z,11.00
2023-02-28T21:39:25.997Z,10.40
2023-02-28T21:41:54.824Z,11.10
2023-02-28T21:44:23.484Z,10.60
2023-02-28T21:46:55.349Z,10.70
2023-02-28T21:49:24.224Z,10.90
2023-02-28T21:51:56.284Z,10.70
2023-02-28T21:54:25.076Z,11.40
2023-02-28T21:56:53.434Z,9.80
2023-02-28T21:59:22.263Z,10.10
2023-02-28T22:01:51.849Z,9.20
2023-02-28T22:04:21.725Z,10.00
2023-02-28T22:06:53.823Z,10.40
2023-02-28T22:11:50.581Z,9.50
2023-02-28T22:14:20.080Z,9.50
2023-02-28T22:16:55.163Z,9.70
2023-02-28T22:19:25.200Z,11.30
2023-02-28T22:21:54.380Z,9.00
2023-02-28T22:24:24.883Z,10.50
2023-02-28T22:26:53.670Z,9.40
2023-02-28T22:29:22.508Z,9.60
2023-02-28T22:31:51.137Z,9.40
2023-02-28T22:34:20.418Z,8.50
2023-02-28T22:36:49.675Z,9.40
2023-02-28T22:39:18.112Z,10.30
2023-02-28T22:41:46.388Z,11.10
2023-02-28T22:44:23.251Z,11.00
2023-02-28T22:46:55.171Z,9.40
2023-02-28T22:49:23.477Z,10.00
2023-02-28T22:51:53.045Z,10.40
2023-02-28T22:54:21.313Z,9.40
2023-02-28T22:56:50.397Z,9.60
2023-02-28T22:59:19.271Z,8.90
2023-02-28T23:01:54.659Z,9.10
2023-02-28T23:04:27.270Z,10.10
2023-02-28T23:07:00.925Z,9.70
2023-02-28T23:09:29.654Z,9.30
2023-02-28T23:12:02.379Z,10.20
2023-02-28T23:14:30.917Z,9.80
2023-02-28T23:16:59.495Z,9.50
2023-02-28T23:19:32.172Z,9.50
2023-02-28T23:22:01.870Z,9.20
2023-02-28T23:24:31.662Z,10.20
2023-02-28T23:27:02.493Z,10.80
2023-02-28T23:29:30.981Z,9.60
2023-02-28T23:31:59.264Z,10.60
2023-02-28T23:34:32.324Z,10.20
2023-02-28T23:37:02.173Z,11.10
2023-02-28T23:39:31.520Z,10.70
2023-02-28T23:41:59.928Z,10.10
2023-02-28T23:44:28.366Z,8.60
2023-02-28T23:46:56.821Z,9.50
2023-02-28T23:49:25.952Z,9.20
2023-02-28T23:51:54.708Z,10.10
2023-02-28T23:54:25.435Z,9.00
2023-02-28T23:56:55.475Z,10.20
2023-02-28T23:59:26.120Z,11.20
